Colorado Springs, CO (80935)

9:35 PM MDT on September 02, 2014 (GMT -0600)
Old North End | Change Station
CLOSE
Current Station
Personal Weather Station
Location: Colorado Springs, CO
Elevation: 6086 ft
Nearby Weather Stations

Elev 6086 ft 38.85 °N, 104.82 °W | Updated 20 seconds ago

Clear
Clear
65.1 °F
Feels Like 65.1 °F
N
0.0
Wind Variable Wind from South
Gusts 0.0 mph

Today
High -- | Low -- °F
--% Chance of Precip.
Yesterday
High -- | Low -- °F
Precip. -- in
6:29 AM 7:27 PM
First Quarter, 58% visible
Pressure 29.85 in
Visibility 10.0 miles
Clouds Few 14000 ft
Dew Point 54 °F
Humidity 68%
Rainfall 0.00 in
Snow Depth Not available.
UV 0 out of 12
Pollen 9.80 out of 12
Ozone Good
PM2.5 Good
Flu Activity Not available.
METAR KCOS 030254Z 10010KT 10SM FEW140 22/07 A3009 RMK AO2 SLP106 T02220072 53010

More Conditions Fewer Conditions

Pressure 29.85 in
Visibility 10.0 miles
Clouds Few 14000 ft
Dew Point 54 °F
Humidity 68%
Rainfall 0.00 in
Snow Depth Not available.
UV 0 out of 12
Pollen 9.80 out of 12
Ozone Good
PM2.5 Good
Flu Activity Not available.
METAR KCOS 030254Z 10010KT 10SM FEW140 22/07 A3009 RMK AO2 SLP106 T02220072 53010

More Conditions Fewer Conditions

10-Day Weather Forecast

Almanac

Astronomy

Sep. 02, 2014 Rise Set
Actual Time 6:29 AM MDT 7:27 PM MDT
Civil Twilight 6:01 AM MDT 7:55 PM MDT
Nautical Twilight 5:29 AM MDT 8:27 PM MDT
Astronomical Twilight 4:55 AM MDT 9:00 PM MDT
Moon 2:11 PM MDT (9/2) No Moon Set
Length of Visible Light 13h 53m
Length of Day
12h 58m
Tomorrow will be 2m 26s shorter.
First Quarter, 58% of the Moon is Illuminated
Today
First Quarter
Sep 8
Full
Sep 15
Last Quarter
Sep 24
New
Oct 1
First Quarter

Today's Extremes

State Highs State Lows

Community

WunderPhotos

Upload Photos

1,749,867 photos uploaded!

WunderBlogs® & News

Nearby

Air Quality

  Air Quality AQ Index Pollutant
Yesterday Good
OZONE
Yesterday Good
PM2.5
Current Good
OZONE
Current Good
PM2.5
Tuesday Good
PM2.5
Tuesday Good
OZONE
Wednesday Good
PM2.5
Wednesday Good
OZONE

Snow Depth

Station Depth Elevation
Rough And Tumble 0 in 10360 ft
Echo Lake 0 in 10600 ft
Michigan Creek 0 in 10600 ft
Medano Pass 0 in 9620 ft
Grizzly Peak 0 in 11100 ft

Earthquake Activity

City Distance Mag. Time & Date
Trinidad, Colorado 122 miles 2.7 4:20 AM MDT
2014-08-31
Minimum magnitude displayed is 2.5.

Coastal Water Temperatures

Place Temperature
No Stations Reporting

Nearby Weather Stations